createdAt,value
2022-10-11T00:01:08.637Z,100.00
2022-10-11T00:03:36.478Z,100.00
2022-10-11T00:06:06.102Z,85.49
2022-10-11T00:08:34.406Z,100.00
2022-10-11T00:11:05.811Z,100.00
2022-10-11T00:13:34.255Z,100.00
2022-10-11T00:16:02.639Z,95.11
2022-10-11T00:18:30.677Z,91.75
2022-10-11T00:21:03.031Z,95.58
2022-10-11T00:23:30.794Z,76.50
2022-10-11T00:25:59.700Z,100.00
2022-10-11T00:28:29.113Z,86.10
2022-10-11T00:30:57.488Z,94.95
2022-10-11T00:33:25.220Z,91.92
2022-10-11T00:35:53.031Z,85.94
2022-10-11T00:38:20.999Z,92.68
2022-10-11T00:40:48.746Z,86.15
2022-10-11T00:43:18.009Z,87.37
2022-10-11T00:46:06.540Z,100.00
2022-10-11T00:48:42.382Z,95.15
2022-10-11T00:51:16.679Z,92.73
2022-10-11T00:53:44.788Z,83.43
2022-10-11T00:56:16.298Z,82.22
2022-10-11T00:58:44.208Z,86.20
2022-10-11T01:01:13.423Z,83.87
2022-10-11T01:03:41.697Z,74.97
2022-10-11T01:06:10.138Z,100.00
2022-10-11T01:08:38.049Z,100.00
2022-10-11T01:11:06.064Z,97.90
2022-10-11T01:13:44.387Z,100.00
2022-10-11T01:16:16.763Z,100.00
2022-10-11T01:18:49.992Z,80.39
2022-10-11T01:21:27.373Z,83.47
2022-10-11T01:24:21.858Z,97.91
2022-10-11T01:27:25.534Z,76.53
2022-10-11T01:30:03.613Z,76.78
2022-10-11T01:32:35.681Z,79.67
2022-10-11T01:35:07.691Z,84.43
2022-10-11T01:37:38.143Z,94.49
2022-10-11T01:40:10.045Z,76.39
2022-10-11T01:42:39.687Z,76.21
2022-10-11T01:45:09.669Z,84.64
2022-10-11T01:47:39.065Z,75.25
2022-10-11T01:50:09.196Z,78.23
2022-10-11T01:52:38.317Z,74.24
2022-10-11T01:55:14.939Z,69.49
2022-10-11T01:57:49.242Z,67.91
2022-10-11T02:00:18.360Z,68.05
2022-10-11T02:02:54.175Z,71.41
2022-10-11T02:05:27.358Z,78.46
2022-10-11T02:08:00.251Z,71.92
2022-10-11T02:10:33.665Z,75.14
2022-10-11T02:13:05.031Z,75.99
2022-10-11T02:15:34.090Z,93.26
2022-10-11T02:18:07.306Z,90.68
2022-10-11T02:20:35.722Z,80.36
2022-10-11T02:23:07.049Z,83.07
2022-10-11T02:25:36.537Z,81.76
2022-10-11T02:28:07.704Z,77.11
2022-10-11T02:30:36.710Z,73.13
2022-10-11T02:33:07.709Z,74.01
2022-10-11T02:35:39.466Z,82.69
2022-10-11T02:38:11.778Z,84.27
2022-10-11T02:40:42.125Z,81.64
2022-10-11T02:43:13.728Z,86.70
2022-10-11T02:45:44.197Z,88.97
2022-10-11T02:48:13.641Z,95.80
2022-10-11T02:50:42.827Z,95.06
2022-10-11T02:53:11.096Z,83.88
2022-10-11T02:55:38.886Z,87.99
2022-10-11T02:58:06.650Z,88.08
2022-10-11T03:00:34.441Z,93.98
2022-10-11T03:03:02.247Z,100.00
2022-10-11T03:05:32.565Z,94.06
2022-10-11T03:08:00.303Z,100.00
2022-10-11T03:10:28.638Z,99.72
2022-10-11T03:12:56.631Z,100.00
2022-10-11T03:15:24.431Z,100.00
2022-10-11T03:17:52.120Z,100.00
2022-10-11T03:20:19.967Z,98.29
2022-10-11T03:22:49.021Z,100.00
2022-10-11T03:25:17.209Z,100.00
2022-10-11T03:27:44.938Z,100.00
2022-10-11T03:30:17.910Z,100.00
2022-10-11T03:32:46.018Z,100.00
2022-10-11T03:35:13.802Z,100.00
2022-10-11T03:37:41.724Z,100.00
2022-10-11T03:40:12.222Z,100.00
2022-10-11T03:42:40.397Z,100.00
2022-10-11T03:45:09.812Z,100.00
2022-10-11T03:47:38.738Z,100.00
2022-10-11T03:50:07.467Z,100.00
2022-10-11T03:52:35.394Z,100.00
2022-10-11T03:55:03.448Z,100.00
2022-10-11T03:57:32.540Z,100.00
2022-10-11T04:00:00.301Z,100.00
2022-10-11T04:02:28.512Z,100.00
2022-10-11T04:04:56.608Z,100.00
2022-10-11T04:07:24.290Z,100.00
2022-10-11T04:09:52.803Z,100.00
2022-10-11T04:12:20.646Z,81.76
2022-10-11T04:14:49.788Z,86.39
2022-10-11T04:17:17.505Z,76.22
2022-10-11T04:19:45.265Z,96.88
2022-10-11T04:22:13.979Z,100.00
2022-10-11T04:24:41.794Z,92.59
2022-10-11T04:27:09.588Z,94.92
2022-10-11T04:29:37.329Z,87.05
2022-10-11T04:32:06.872Z,98.68
2022-10-11T04:34:34.609Z,90.59
2022-10-11T04:37:02.809Z,100.00
2022-10-11T04:39:30.533Z,90.75
2022-10-11T04:41:58.645Z,100.00
2022-10-11T04:44:26.382Z,99.50
2022-10-11T04:46:54.085Z,100.00
2022-10-11T04:49:23.413Z,100.00
2022-10-11T04:51:51.172Z,100.00
2022-10-11T04:54:19.255Z,100.00
2022-10-11T04:56:47.795Z,100.00
2022-10-11T04:59:15.588Z,100.00
2022-10-11T05:01:43.403Z,100.00
2022-10-11T05:04:11.153Z,100.00
2022-10-11T05:06:40.284Z,100.00
2022-10-11T05:09:07.996Z,100.00
2022-10-11T05:11:35.791Z,100.00
2022-10-11T05:14:03.666Z,100.00
2022-10-11T05:16:31.435Z,100.00
2022-10-11T05:18:59.200Z,100.00
2022-10-11T05:21:28.234Z,100.00
2022-10-11T05:23:57.915Z,100.00
2022-10-11T05:26:27.404Z,100.00
2022-10-11T05:28:55.930Z,100.00
2022-10-11T05:31:24.099Z,100.00
2022-10-11T05:33:52.005Z,100.00
2022-10-11T05:36:19.734Z,100.00
2022-10-11T05:38:47.634Z,100.00
2022-10-11T05:41:17.245Z,100.00
2022-10-11T05:43:45.854Z,100.00
2022-10-11T05:46:13.722Z,100.00
2022-10-11T05:48:41.847Z,100.00
2022-10-11T05:51:10.801Z,100.00
2022-10-11T05:53:39.744Z,100.00
2022-10-11T05:56:20.279Z,100.00
2022-10-11T05:58:48.405Z,100.00
2022-10-11T06:01:20.782Z,100.00
2022-10-11T06:03:48.770Z,100.00
2022-10-11T06:06:17.020Z,100.00
2022-10-11T06:08:46.265Z,100.00
2022-10-11T06:11:16.449Z,100.00
2022-10-11T06:13:56.470Z,100.00
2022-10-11T06:16:25.362Z,100.00
2022-10-11T06:18:54.030Z,100.00
2022-10-11T06:21:21.911Z,100.00
2022-10-11T06:23:50.781Z,100.00
2022-10-11T06:26:19.177Z,100.00
2022-10-11T06:28:47.045Z,100.00
2022-10-11T06:31:16.162Z,100.00
2022-10-11T06:33:43.953Z,100.00
2022-10-11T06:36:13.404Z,100.00
2022-10-11T06:38:44.925Z,100.00
2022-10-11T06:41:14.442Z,100.00
2022-10-11T06:43:42.385Z,100.00
2022-10-11T06:46:10.228Z,100.00
2022-10-11T06:48:43.385Z,100.00
2022-10-11T06:51:11.233Z,100.00
2022-10-11T06:53:39.055Z,100.00
2022-10-11T06:56:11.711Z,98.80
2022-10-11T06:58:40.917Z,90.60
2022-10-11T07:01:10.601Z,96.37
2022-10-11T07:03:38.413Z,96.40
2022-10-11T07:06:10.065Z,86.88
2022-10-11T07:08:39.023Z,78.03
2022-10-11T07:11:08.987Z,100.00
2022-10-11T07:13:37.103Z,100.00
2022-10-11T07:16:06.033Z,89.95
2022-10-11T07:18:34.116Z,99.36
2022-10-11T07:21:04.327Z,100.00
2022-10-11T07:23:33.445Z,100.00
2022-10-11T07:26:02.183Z,75.49
2022-10-11T07:28:31.125Z,91.10
2022-10-11T07:30:59.961Z,100.00
2022-10-11T07:33:28.220Z,100.00
2022-10-11T07:35:58.699Z,100.00
2022-10-11T07:38:26.839Z,100.00
2022-10-11T07:40:55.954Z,100.00
2022-10-11T07:43:23.678Z,100.00
2022-10-11T07:45:54.286Z,100.00
2022-10-11T07:48:22.610Z,100.00
2022-10-11T07:50:50.440Z,100.00
2022-10-11T07:53:18.203Z,100.00
2022-10-11T07:55:46.017Z,100.00
2022-10-11T07:58:15.231Z,95.78
2022-10-11T08:00:43.291Z,100.00
2022-10-11T08:03:11.473Z,78.88
2022-10-11T08:05:39.453Z,80.30
2022-10-11T08:08:07.384Z,77.76
2022-10-11T08:10:38.464Z,72.34
2022-10-11T08:13:06.404Z,74.86
2022-10-11T08:15:35.507Z,91.65
2022-10-11T08:18:03.308Z,71.92
2022-10-11T08:20:33.120Z,71.83
2022-10-11T08:23:01.107Z,64.74
2022-10-11T08:25:29.882Z,73.72
2022-10-11T08:27:57.702Z,76.82
2022-10-11T08:30:25.474Z,80.59
2022-10-11T08:32:54.660Z,75.15
2022-10-11T08:35:22.377Z,71.28
2022-10-11T08:37:50.149Z,78.69
2022-10-11T08:40:19.507Z,75.26
2022-10-11T08:42:51.677Z,68.09
2022-10-11T08:45:30.495Z,55.91
2022-10-11T08:48:05.546Z,65.60
2022-10-11T08:50:33.330Z,64.27
2022-10-11T08:53:04.547Z,74.78
2022-10-11T08:55:37.253Z,61.80
2022-10-11T08:58:05.109Z,57.49
2022-10-11T09:00:34.793Z,54.90
2022-10-11T09:03:09.309Z,50.37
2022-10-11T09:05:45.053Z,51.22
2022-10-11T09:08:19.885Z,45.79
2022-10-11T09:10:56.798Z,45.55
2022-10-11T09:13:42.354Z,46.82
2022-10-11T09:16:17.206Z,46.43
2022-10-11T09:18:55.177Z,51.78
2022-10-11T09:21:29.679Z,49.26
2022-10-11T09:24:14.542Z,56.87
2022-10-11T09:26:49.456Z,53.52
2022-10-11T09:29:24.813Z,52.88
2022-10-11T09:31:55.214Z,55.61
2022-10-11T09:34:26.876Z,51.84
2022-10-11T09:36:57.309Z,49.78
2022-10-11T09:39:28.825Z,50.11
2022-10-11T09:41:59.878Z,56.36
2022-10-11T09:44:29.591Z,52.02
2022-10-11T09:46:58.373Z,50.48
2022-10-11T09:49:30.808Z,48.11
2022-10-11T09:52:00.483Z,61.81
2022-10-11T09:54:39.708Z,55.31
2022-10-11T09:57:08.229Z,49.59
2022-10-11T09:59:36.498Z,47.52
2022-10-11T10:02:21.125Z,49.33
2022-10-11T10:05:18.699Z,50.73
2022-10-11T10:08:04.709Z,47.26
2022-10-11T10:10:38.570Z,44.81
2022-10-11T10:13:07.979Z,42.98
2022-10-11T10:15:37.338Z,43.86
2022-10-11T10:18:10.455Z,45.85
2022-10-11T10:20:39.645Z,44.41
2022-10-11T10:23:10.958Z,45.04
2022-10-11T10:25:43.452Z,43.23
2022-10-11T10:28:21.983Z,39.66
2022-10-11T10:30:54.505Z,42.28
2022-10-11T10:33:24.345Z,42.49
2022-10-11T10:35:55.340Z,42.41
2022-10-11T10:38:27.673Z,42.91
2022-10-11T10:40:58.137Z,46.67
2022-10-11T10:43:27.641Z,42.60
2022-10-11T10:46:18.015Z,43.04
2022-10-11T10:51:49.387Z,41.02
2022-10-11T10:54:24.860Z,40.41
2022-10-11T10:56:54.725Z,36.89
2022-10-11T10:59:46.148Z,40.65
2022-10-11T11:02:38.973Z,39.59
2022-10-11T11:05:14.188Z,35.83
2022-10-11T11:07:45.378Z,36.91
2022-10-11T11:10:17.082Z,38.83
2022-10-11T11:12:47.443Z,37.99
2022-10-11T11:15:19.756Z,38.76
2022-10-11T11:17:59.161Z,42.56
2022-10-11T11:20:56.219Z,37.78
2022-10-11T11:23:31.753Z,41.91
2022-10-11T11:26:07.797Z,37.69
2022-10-11T11:28:44.829Z,38.30
2022-10-11T11:31:23.565Z,39.10
2022-10-11T11:33:59.134Z,38.86
2022-10-11T11:36:39.989Z,36.58
2022-10-11T11:39:14.756Z,37.50
2022-10-11T11:41:45.376Z,35.32
2022-10-11T11:44:17.562Z,36.19
2022-10-11T11:46:48.604Z,34.74
2022-10-11T11:49:20.577Z,37.22
2022-10-11T11:51:48.586Z,34.94
2022-10-11T11:54:28.145Z,34.28
2022-10-11T11:56:59.484Z,33.42
2022-10-11T11:59:33.248Z,33.63
2022-10-11T12:02:10.073Z,31.50
2022-10-11T12:04:39.231Z,31.93
2022-10-11T12:07:16.222Z,31.54
2022-10-11T12:09:50.396Z,33.46
2022-10-11T12:12:30.371Z,31.27
2022-10-11T12:15:13.111Z,30.56
2022-10-11T12:18:42.922Z,32.35
2022-10-11T12:21:21.231Z,32.61
2022-10-11T12:23:49.765Z,31.86
2022-10-11T12:26:46.400Z,33.61
2022-10-11T12:29:43.315Z,28.73
2022-10-11T12:32:53.425Z,32.80
2022-10-11T12:35:49.675Z,32.42
2022-10-11T12:38:21.881Z,35.63
2022-10-11T12:40:54.505Z,33.72
2022-10-11T12:43:37.208Z,38.15
2022-10-11T12:47:28.036Z,41.67
2022-10-11T12:50:08.686Z,39.70
2022-10-11T12:52:41.542Z,38.02
2022-10-11T12:55:45.093Z,37.56
2022-10-11T12:58:28.825Z,39.50
2022-10-11T13:01:36.179Z,41.71
2022-10-11T13:04:11.711Z,39.42
2022-10-11T13:06:46.627Z,37.92
2022-10-11T13:09:28.258Z,36.29
2022-10-11T13:11:58.696Z,30.40
2022-10-11T13:14:27.614Z,29.46
2022-10-11T13:17:05.419Z,26.65
2022-10-11T13:19:36.472Z,27.89
2022-10-11T13:22:07.763Z,28.41
2022-10-11T13:24:38.780Z,28.19
2022-10-11T13:27:07.688Z,30.30
2022-10-11T13:29:38.497Z,29.00
2022-10-11T13:32:09.318Z,28.43
2022-10-11T13:34:40.419Z,29.69
2022-10-11T13:37:08.999Z,31.52
2022-10-11T13:39:39.205Z,31.01
2022-10-11T13:42:11.825Z,30.76
2022-10-11T13:44:40.274Z,30.34
2022-10-11T13:47:10.547Z,28.30
2022-10-11T13:49:39.960Z,25.79
2022-10-11T13:56:20.295Z,24.85
2022-10-11T13:58:48.469Z,25.15
2022-10-11T14:01:19.104Z,27.81
2022-10-11T14:04:29.345Z,28.54
2022-10-11T14:07:29.761Z,27.71
2022-10-11T14:10:40.588Z,26.80
2022-10-11T14:13:24.759Z,28.31
2022-10-11T14:16:06.456Z,27.71
2022-10-11T14:18:48.767Z,27.52
2022-10-11T14:21:27.879Z,31.14
2022-10-11T14:24:01.578Z,32.51
2022-10-11T14:26:37.810Z,35.12
2022-10-11T14:29:08.952Z,36.42
2022-10-11T14:31:41.783Z,35.07
2022-10-11T14:34:16.039Z,33.70
2022-10-11T14:36:43.802Z,32.23
2022-10-11T14:39:15.523Z,31.39
2022-10-11T14:41:43.702Z,30.25
2022-10-11T14:44:11.605Z,31.29
2022-10-11T14:46:40.859Z,31.46
2022-10-11T14:49:14.459Z,32.32
2022-10-11T14:51:42.770Z,32.40
2022-10-11T14:54:10.785Z,32.79
2022-10-11T14:56:39.998Z,30.76
2022-10-11T14:59:07.966Z,27.55
2022-10-11T15:01:35.774Z,27.17
2022-10-11T15:04:03.532Z,26.18
2022-10-11T15:06:34.539Z,26.28
2022-10-11T15:09:02.326Z,26.52
2022-10-11T15:11:30.087Z,25.92
2022-10-11T15:13:59.717Z,26.12
2022-10-11T15:17:23.707Z,26.45
2022-10-11T15:20:09.343Z,25.46
2022-10-11T15:22:40.068Z,25.28
2022-10-11T15:25:11.282Z,25.53
2022-10-11T15:27:39.088Z,26.70
2022-10-11T15:30:18.234Z,28.06
2022-10-11T15:36:53.344Z,26.74
2022-10-11T15:39:31.490Z,26.88
2022-10-11T15:41:59.587Z,26.90
2022-10-11T15:44:27.470Z,26.99
2022-10-11T15:46:56.576Z,27.54
2022-10-11T15:49:24.345Z,30.81
2022-10-11T15:51:52.088Z,32.63
2022-10-11T15:54:24.213Z,35.00
2022-10-11T15:56:56.864Z,35.21
2022-10-11T15:59:24.573Z,36.89
2022-10-11T16:01:52.383Z,36.14
2022-10-11T16:04:21.556Z,36.53
2022-10-11T16:06:49.271Z,36.12
2022-10-11T16:09:17.112Z,35.80
2022-10-11T16:11:44.962Z,42.29
2022-10-11T16:14:12.662Z,43.39
2022-10-11T16:16:43.441Z,44.60
2022-10-11T16:19:11.999Z,44.62
2022-10-11T16:21:41.091Z,47.54
2022-10-11T16:24:08.968Z,47.73
2022-10-11T16:29:32.013Z,53.25
2022-10-11T16:32:02.999Z,51.81
2022-10-11T16:34:30.738Z,51.46
2022-10-11T16:36:59.855Z,48.23
2022-10-11T16:39:31.061Z,45.71
2022-10-11T16:41:58.879Z,48.17
2022-10-11T16:44:27.887Z,52.47
2022-10-11T16:46:56.621Z,51.24
2022-10-11T16:49:26.107Z,52.11
2022-10-11T16:51:55.638Z,53.71
2022-10-11T16:54:24.771Z,56.55
2022-10-11T16:56:52.530Z,53.53
2022-10-11T16:59:20.896Z,55.56
2022-10-11T17:01:49.096Z,54.86
2022-10-11T17:04:16.853Z,62.71
2022-10-11T17:06:44.886Z,56.89
2022-10-11T17:09:12.706Z,49.33
2022-10-11T17:11:41.945Z,47.15
2022-10-11T17:14:10.232Z,46.17
2022-10-11T17:16:38.006Z,46.27
2022-10-11T17:19:06.142Z,45.67
2022-10-11T17:21:33.962Z,46.39
2022-10-11T17:24:01.747Z,45.38
2022-10-11T17:26:29.510Z,47.74
2022-10-11T17:28:59.628Z,48.21
2022-10-11T17:31:28.098Z,49.18
2022-10-11T17:33:56.247Z,49.08
2022-10-11T17:36:25.313Z,48.50
2022-10-11T17:38:53.409Z,48.68
2022-10-11T17:41:21.758Z,48.03
2022-10-11T17:43:49.453Z,49.74
2022-10-11T17:46:22.195Z,54.50
2022-10-11T17:48:50.249Z,50.22
2022-10-11T17:51:20.018Z,51.60
2022-10-11T17:53:50.792Z,50.94
2022-10-11T17:56:23.948Z,50.92
2022-10-11T18:00:25.019Z,50.89
2022-10-11T18:02:53.475Z,50.33
2022-10-11T18:05:21.703Z,50.63
2022-10-11T18:07:53.360Z,54.96
2022-10-11T18:10:21.353Z,53.01
2022-10-11T18:12:49.184Z,51.72
2022-10-11T18:15:39.482Z,51.91
2022-10-11T18:18:11.619Z,51.26
2022-10-11T18:20:39.462Z,51.38
2022-10-11T18:23:16.261Z,53.13
2022-10-11T18:25:44.159Z,53.83
2022-10-11T18:31:59.227Z,53.33
2022-10-11T18:34:56.601Z,55.61
2022-10-11T18:37:24.431Z,54.79
2022-10-11T18:39:52.150Z,55.45
2022-10-11T18:42:20.354Z,56.81
2022-10-11T18:44:50.919Z,57.70
2022-10-11T18:47:18.974Z,56.11
2022-10-11T18:49:48.035Z,57.59
2022-10-11T18:52:15.999Z,65.47
2022-10-11T18:54:43.715Z,68.01
2022-10-11T18:57:11.584Z,68.35
2022-10-11T18:59:39.306Z,61.18
2022-10-11T19:02:07.233Z,61.65
2022-10-11T19:04:34.988Z,61.53
2022-10-11T19:07:04.268Z,62.96
2022-10-11T19:09:32.340Z,74.48
2022-10-11T19:12:00.119Z,65.42
2022-10-11T19:14:30.286Z,63.78
2022-10-11T19:16:58.805Z,64.86
2022-10-11T19:19:28.526Z,64.45
2022-10-11T19:21:56.614Z,68.62
2022-10-11T19:24:27.661Z,70.69
2022-10-11T19:27:01.218Z,69.24
2022-10-11T19:29:30.835Z,78.61
2022-10-11T19:32:00.548Z,69.49
2022-10-11T19:34:29.015Z,65.41
2022-10-11T19:36:57.556Z,67.49
2022-10-11T19:39:26.673Z,68.00
2022-10-11T19:41:54.689Z,69.09
2022-10-11T19:44:22.517Z,69.59
2022-10-11T19:46:52.109Z,68.22
2022-10-11T19:49:22.681Z,68.36
2022-10-11T19:51:50.669Z,67.44
2022-10-11T19:54:18.658Z,100.00
2022-10-11T19:56:48.174Z,100.00
2022-10-11T19:59:16.344Z,100.00
2022-10-11T20:01:49.413Z,85.03
2022-10-11T20:04:46.916Z,78.33
2022-10-11T20:07:06.765Z,73.65
2022-10-11T20:09:34.587Z,74.49
2022-10-11T20:12:03.686Z,74.55
2022-10-11T20:14:31.456Z,91.52
2022-10-11T20:16:59.191Z,81.52
2022-10-11T20:19:31.083Z,100.00
2022-10-11T20:21:59.419Z,100.00
2022-10-11T20:24:28.976Z,100.00
2022-10-11T20:26:56.779Z,100.00
2022-10-11T20:29:26.282Z,93.12
2022-10-11T20:31:54.017Z,82.12
2022-10-11T20:34:21.729Z,77.15
2022-10-11T20:36:49.590Z,72.62
2022-10-11T20:39:17.872Z,73.82
2022-10-11T20:41:45.611Z,98.61
2022-10-11T20:44:15.858Z,97.88
2022-10-11T20:46:44.952Z,98.51
2022-10-11T20:49:13.206Z,80.76
2022-10-11T20:51:42.649Z,80.28
2022-10-11T20:54:10.929Z,73.13
2022-10-11T20:56:39.148Z,78.23
2022-10-11T20:59:07.120Z,75.45
2022-10-11T21:01:37.073Z,76.25
2022-10-11T21:04:07.896Z,74.77
2022-10-11T21:06:35.852Z,79.55
2022-10-11T21:09:03.603Z,74.55
2022-10-11T21:11:33.626Z,74.38
2022-10-11T21:14:02.916Z,76.94
2022-10-11T21:16:30.883Z,72.75
2022-10-11T21:18:59.757Z,74.95
2022-10-11T21:21:29.625Z,77.85
2022-10-11T21:23:58.236Z,82.66
2022-10-11T21:26:26.276Z,77.10
2022-10-11T21:28:54.552Z,74.74
2022-10-11T21:31:23.556Z,71.58
2022-10-11T21:33:51.383Z,72.88
2022-10-11T21:36:20.875Z,73.89
2022-10-11T21:38:50.744Z,76.32
2022-10-11T21:41:19.876Z,75.94
2022-10-11T21:43:48.219Z,75.30
2022-10-11T21:46:17.832Z,73.33
2022-10-11T21:48:45.622Z,78.33
2022-10-11T21:51:17.120Z,71.40
2022-10-11T21:53:44.818Z,74.64
2022-10-11T21:56:13.921Z,76.78
2022-10-11T21:58:41.768Z,76.00
2022-10-11T22:01:09.670Z,82.40
2022-10-11T22:03:37.417Z,78.54
2022-10-11T22:06:05.368Z,77.61
2022-10-11T22:08:33.067Z,83.89
2022-10-11T22:11:01.708Z,77.29
2022-10-11T22:13:32.372Z,80.73
2022-10-11T22:16:03.557Z,89.40
2022-10-11T22:18:33.609Z,89.01
2022-10-11T22:21:06.140Z,82.12
2022-10-11T22:23:34.250Z,83.19
2022-10-11T22:26:05.979Z,92.65
2022-10-11T22:28:35.213Z,82.38
2022-10-11T22:31:03.317Z,81.52
2022-10-11T22:33:31.108Z,79.83
2022-10-11T22:36:00.406Z,75.69
2022-10-11T22:38:28.679Z,80.49
2022-10-11T22:40:58.888Z,73.88
2022-10-11T22:43:26.681Z,73.96
2022-10-11T22:45:55.722Z,74.59
2022-10-11T22:48:23.465Z,73.36
2022-10-11T22:50:51.291Z,75.48
2022-10-11T22:53:19.444Z,74.74
2022-10-11T22:55:47.670Z,73.53
2022-10-11T22:58:15.433Z,72.37
2022-10-11T23:00:43.550Z,74.75
2022-10-11T23:03:14.706Z,74.59
2022-10-11T23:05:42.529Z,74.94
2022-10-11T23:08:10.773Z,74.45
2022-10-11T23:10:39.311Z,75.37
2022-10-11T23:13:07.070Z,76.53
2022-10-11T23:15:34.847Z,93.36
2022-10-11T23:18:03.065Z,87.75
2022-10-11T23:20:32.240Z,82.67
2022-10-11T23:22:59.941Z,92.13
2022-10-11T23:25:27.677Z,84.34
2022-10-11T23:27:55.352Z,82.73
2022-10-11T23:30:23.064Z,77.68
2022-10-11T23:32:50.849Z,79.54
2022-10-11T23:35:18.553Z,79.39
2022-10-11T23:37:47.638Z,77.21
2022-10-11T23:40:15.941Z,73.79
2022-10-11T23:42:43.646Z,72.17
2022-10-11T23:45:11.684Z,72.60
2022-10-11T23:47:40.268Z,72.71
2022-10-11T23:50:09.333Z,77.70
2022-10-11T23:52:37.227Z,77.78
2022-10-11T23:55:06.892Z,76.69
2022-10-11T23:57:34.774Z,78.04
